Time;durP1;ratioP1;P1;durP2;ratioP2;P2;SDS_P1;SDS_P2;PMS_P1;PMS_P2;Temp;Humidity;BMP_temperature;BMP_pressure;BME280_temperature;BME280_humidity;BME280_pressure;Samples;Min_cycle;Max_cycle;Signal;HPM_P1;HPM_P2
2021/08/30 00:00:17;;;;;;;;;;;;;;;;;;5114463;28;19987;-69
2021/08/30 00:02:44;;;;;;;;;;;;;;;;;;5114215;28;19924;-69
2021/08/30 00:05:10;;;;;;;;;;;;;;;;;;5114625;28;19924;-70
2021/08/30 00:07:36;;;;;;;;;;;;;;;;;;5114190;28;20401;-69
2021/08/30 00:10:03;;;;;;;;;;;;;;;;;;5114261;28;20069;-71
2021/08/30 00:12:29;;;;;;;;;;;;;;;;;;5114256;28;20294;-70
2021/08/30 00:14:56;;;;;;;;;;;;;;;;;;5113855;28;19928;-71
2021/08/30 00:17:23;;;;;;;;;;;;;;;;;;5114171;28;20022;-71
2021/08/30 00:19:49;;;;;;;;;;;;;;;;;;5114183;28;19946;-71
2021/08/30 00:22:15;;;;;;;;;;;;;;;;;;5113793;28;19928;-71
2021/08/30 00:24:42;;;;;;;;;;;;;;;;;;5114181;28;19924;-72
2021/08/30 00:27:08;;;;;;;;;;;;;;;;;;5114273;28;20006;-72
2021/08/30 00:29:34;;;;;;;;;;;;;;;;;;5113945;28;20401;-69
2021/08/30 00:32:00;;;;;;;;;;;;;;;;;;5113569;28;19924;-69
2021/08/30 00:34:27;;;;;;;;;;;;;;;;;;5113965;28;19924;-70
2021/08/30 00:36:53;;;;;;;;;;;;;;;;;;5113553;28;19931;-69
2021/08/30 00:39:20;;;;;;;;;;;;;;;;;;5114087;28;19924;-70
2021/08/30 00:41:46;;;;;;;;;;;;;;;;;;5113437;28;19928;-70
2021/08/30 00:44:13;;;;;;;;;;;;;;;;;;5113862;28;19924;-70
2021/08/30 00:46:39;;;;;;;;;;;;;;;;;;5113810;28;19924;-69
2021/08/30 00:49:05;;;;;;;;;;;;;;;;;;5113238;28;19935;-70
2021/08/30 00:51:31;;;;;;;;;;;;;;;;;;5113908;28;19924;-70
2021/08/30 00:53:58;;;;;;;;;;;;;;;;;;5113269;28;20396;-70
2021/08/30 00:56:25;;;;;;;;;;;;;;;;;;5113496;28;20336;-69
2021/08/30 00:58:51;;;;;;;;;;;;;;;;;;5113073;28;19924;-70
2021/08/30 01:01:17;;;;;;;;;;;;;;;;;;5113678;28;19924;-71
2021/08/30 01:03:44;;;;;;;;;;;;;;;;;;5112906;28;19934;-71
2021/08/30 01:06:10;;;;;;;;;;;;;;;;;;5113522;28;19924;-71
2021/08/30 01:08:36;;;;;;;;;;;;;;;;;;5113124;28;19928;-71
2021/08/30 01:11:03;;;;;;;;;;;;;;;;;;5112781;28;20294;-71
2021/08/30 01:13:29;;;;;;;;;;;;;;;;;;5113179;28;19931;-71
2021/08/30 01:15:55;;;;;;;;;;;;;;;;;;5113055;28;19932;-71
2021/08/30 01:18:21;;;;;;;;;;;;;;;;;;5113125;28;19924;-71
2021/08/30 01:20:48;;;;;;;;;;;;;;;;;;5112851;28;19923;-71
2021/08/30 01:23:14;;;;;;;;;;;;;;;;;;5112970;28;19931;-71
2021/08/30 01:25:40;;;;;;;;;;;;;;;;;;5112948;28;20378;-72
2021/08/30 01:28:07;;;;;;;;;;;;;;;;;;5113030;28;19927;-71
2021/08/30 01:30:33;;;;;;;;;;;;;;;;;;5113109;28;20294;-71
2021/08/30 01:33:00;;;;;;;;;;;;;;;;;;5112639;28;19924;-71
2021/08/30 01:35:26;;;;;;;;;;;;;;;;;;5113245;28;20177;-71
2021/08/30 01:37:52;;;;;;;;;;;;;;;;;;5112641;28;19931;-71
2021/08/30 01:40:19;;;;;;;;;;;;;;;;;;5113015;28;19931;-71
2021/08/30 01:42:45;;;;;;;;;;;;;;;;;;5112625;28;19924;-70
2021/08/30 01:45:11;;;;;;;;;;;;;;;;;;5113079;28;19924;-70
2021/08/30 01:47:38;;;;;;;;;;;;;;;;;;5113114;28;20290;-70
2021/08/30 01:50:04;;;;;;;;;;;;;;;;;;5112335;28;19928;-70
2021/08/30 01:52:31;;;;;;;;;;;;;;;;;;5113093;28;19924;-70
2021/08/30 01:54:58;;;;;;;;;;;;;;;;;;5112787;28;19950;-71
2021/08/30 01:57:24;;;;;;;;;;;;;;;;;;5112742;28;19931;-70
2021/08/30 02:02:35;;;;;;;;;;;;;;;;;;5112765;28;19918;-70
2021/08/30 02:05:01;;;;;;;;;;;;;;;;;;5112276;28;19924;-70
2021/08/30 02:07:27;;;;;;;;;;;;;;;;;;5112901;28;19924;-70
2021/08/30 02:09:53;;;;;;;;;;;;;;;;;;5112302;28;20311;-70
2021/08/30 02:12:20;;;;;;;;;;;;;;;;;;5112521;28;19924;-72
2021/08/30 02:14:46;;;;;;;;;;;;;;;;;;5112611;28;19924;-71
2021/08/30 02:17:12;;;;;;;;;;;;;;;;;;5112549;28;20413;-71
2021/08/30 02:19:39;;;;;;;;;;;;;;;;;;5112452;28;19931;-71
2021/08/30 02:22:05;;;;;;;;;;;;;;;;;;5112153;28;19924;-71
2021/08/30 02:24:32;;;;;;;;;;;;;;;;;;5115564;28;19931;-70
2021/08/30 02:26:58;;;;;;;;;;;;;;;;;;5116422;28;19927;-70
2021/08/30 02:29:24;;;;;;;;;;;;;;;;;;5116322;28;19930;-70
2021/08/30 02:31:51;;;;;;;;;;;;;;;;;;5116243;28;19931;-70
2021/08/30 02:34:17;;;;;;;;;;;;;;;;;;5116101;28;20313;-70
2021/08/30 02:36:43;;;;;;;;;;;;;;;;;;5116349;28;19931;-70
2021/08/30 02:39:09;;;;;;;;;;;;;;;;;;5116456;28;19930;-71
2021/08/30 02:41:36;;;;;;;;;;;;;;;;;;5116081;28;19930;-71
2021/08/30 02:44:02;;;;;;;;;;;;;;;;;;5115961;28;19924;-69
2021/08/30 02:46:28;;;;;;;;;;;;;;;;;;5115791;28;20398;-72
2021/08/30 02:48:55;;;;;;;;;;;;;;;;;;5115678;28;19935;-72
2021/08/30 02:51:21;;;;;;;;;;;;;;;;;;5115865;28;20274;-71
2021/08/30 02:53:48;;;;;;;;;;;;;;;;;;5115223;28;19923;-70
2021/08/30 02:56:14;;;;;;;;;;;;;;;;;;5116067;28;19978;-71
2021/08/30 02:58:40;;;;;;;;;;;;;;;;;;5115721;28;19924;-70
2021/08/30 03:01:07;;;;;;;;;;;;;;;;;;5115741;28;19935;-71
2021/08/30 03:03:33;;;;;;;;;;;;;;;;;;5129726;27;19923;-71
2021/08/30 03:05:59;;;;;;;;;;;;;;;;;;5135691;27;19923;-70
2021/08/30 03:08:26;;;;;;;;;;;;;;;;;;5136299;27;19924;-70
2021/08/30 03:10:52;;;;;;;;;;;;;;;;;;5136072;27;19946;-71
2021/08/30 03:13:18;;;;;;;;;;;;;;;;;;5136025;27;19930;-70
2021/08/30 03:15:44;;;;;;;;;;;;;;;;;;5136021;27;19931;-71
2021/08/30 03:18:11;;;;;;;;;;;;;;;;;;5135881;27;20278;-71
2021/08/30 03:20:37;;;;;;;;;;;;;;;;;;5135665;27;19934;-71
2021/08/30 03:23:03;;;;;;;;;;;;;;;;;;5135506;27;19924;-71
2021/08/30 03:25:32;;;;;;;;;;;;;;;;;;5134949;27;20281;-70
2021/08/30 03:27:58;;;;;;;;;;;;;;;;;;5135446;27;19930;-71
2021/08/30 03:30:24;;;;;;;;;;;;;;;;;;5135807;27;19924;-71
2021/08/30 03:32:50;;;;;;;;;;;;;;;;;;5135227;27;20297;-71
2021/08/30 03:35:17;;;;;;;;;;;;;;;;;;5134993;27;19928;-71
2021/08/30 03:37:43;;;;;;;;;;;;;;;;;;5135765;27;19923;-71
2021/08/30 03:40:09;;;;;;;;;;;;;;;;;;5135413;27;20399;-71
2021/08/30 03:42:36;;;;;;;;;;;;;;;;;;5135252;27;19931;-72
2021/08/30 03:45:02;;;;;;;;;;;;;;;;;;5135282;27;19923;-72
2021/08/30 03:47:28;;;;;;;;;;;;;;;;;;5135273;27;20441;-71
2021/08/30 03:49:55;;;;;;;;;;;;;;;;;;5134878;27;19928;-72
2021/08/30 03:52:21;;;;;;;;;;;;;;;;;;5135430;27;19923;-72
2021/08/30 03:54:47;;;;;;;;;;;;;;;;;;5134874;27;20430;-72
2021/08/30 03:57:14;;;;;;;;;;;;;;;;;;5135464;27;19924;-71
2021/08/30 03:59:40;;;;;;;;;;;;;;;;;;5135033;27;19968;-72
2021/08/30 04:02:07;;;;;;;;;;;;;;;;;;5134980;27;19934;-72
2021/08/30 04:04:33;;;;;;;;;;;;;;;;;;5134864;27;19930;-73
2021/08/30 04:06:59;;;;;;;;;;;;;;;;;;5134644;27;19923;-72
2021/08/30 04:09:27;;;;;;;;;;;;;;;;;;5135096;27;19947;-72
2021/08/30 04:11:53;;;;;;;;;;;;;;;;;;5134941;27;19924;-72
2021/08/30 04:14:20;;;;;;;;;;;;;;;;;;5134802;27;19924;-71
2021/08/30 04:16:47;;;;;;;;;;;;;;;;;;5134653;27;19929;-72
2021/08/30 04:19:13;;;;;;;;;;;;;;;;;;5134655;27;19923;-72
2021/08/30 04:21:40;;;;;;;;;;;;;;;;;;5134374;27;19931;-70
2021/08/30 04:24:06;;;;;;;;;;;;;;;;;;5134605;27;19923;-70
2021/08/30 04:26:32;;;;;;;;;;;;;;;;;;5134480;27;19925;-72
2021/08/30 04:28:58;;;;;;;;;;;;;;;;;;5134472;27;19923;-71
2021/08/30 04:31:25;;;;;;;;;;;;;;;;;;5134647;27;19930;-70
2021/08/30 04:33:51;;;;;;;;;;;;;;;;;;5134397;27;19923;-70
2021/08/30 04:36:17;;;;;;;;;;;;;;;;;;5134250;27;19934;-71
2021/08/30 04:38:44;;;;;;;;;;;;;;;;;;5134579;27;19923;-74
2021/08/30 04:41:10;;;;;;;;;;;;;;;;;;5134564;27;19923;-71
2021/08/30 04:43:36;;;;;;;;;;;;;;;;;;5134172;27;19923;-71
2021/08/30 04:46:03;;;;;;;;;;;;;;;;;;5132959;27;19924;-71
2021/08/30 04:48:29;;;;;;;;;;;;;;;;;;5134328;27;19923;-71
2021/08/30 04:50:55;;;;;;;;;;;;;;;;;;5133787;27;19923;-71
2021/08/30 04:53:21;;;;;;;;;;;;;;;;;;5133913;27;19924;-71
2021/08/30 04:55:48;;;;;;;;;;;;;;;;;;5134021;27;19927;-71
2021/08/30 04:58:14;;;;;;;;;;;;;;;;;;5133964;27;19923;-71
2021/08/30 05:00:40;;;;;;;;;;;;;;;;;;5134084;27;19924;-71
2021/08/30 05:03:07;;;;;;;;;;;;;;;;;;5133823;27;19986;-73
2021/08/30 05:05:33;;;;;;;;;;;;;;;;;;5133668;27;19923;-72
2021/08/30 05:07:59;;;;;;;;;;;;;;;;;;5133808;27;19923;-72
2021/08/30 05:10:26;;;;;;;;;;;;;;;;;;5133978;27;20014;-72
2021/08/30 05:12:52;;;;;;;;;;;;;;;;;;5133322;27;19923;-72
2021/08/30 05:15:18;;;;;;;;;;;;;;;;;;5133891;27;20000;-72
2021/08/30 05:17:44;;;;;;;;;;;;;;;;;;5133716;27;19930;-72
2021/08/30 05:20:11;;;;;;;;;;;;;;;;;;5133495;27;19931;-73
2021/08/30 05:22:37;;;;;;;;;;;;;;;;;;5133291;27;19930;-72
2021/08/30 05:25:03;;;;;;;;;;;;;;;;;;5133446;27;19973;-73
2021/08/30 05:27:30;;;;;;;;;;;;;;;;;;5133511;27;19924;-73
2021/08/30 05:29:56;;;;;;;;;;;;;;;;;;5133539;27;19923;-72
2021/08/30 05:32:22;;;;;;;;;;;;;;;;;;5133649;27;20285;-72
2021/08/30 05:34:49;;;;;;;;;;;;;;;;;;5133058;27;19934;-72
2021/08/30 05:37:15;;;;;;;;;;;;;;;;;;5133663;28;19923;-76
2021/08/30 05:39:41;;;;;;;;;;;;;;;;;;5133670;28;19953;-73
2021/08/30 05:42:07;;;;;;;;;;;;;;;;;;5133131;28;20400;-72
2021/08/30 05:44:34;;;;;;;;;;;;;;;;;;5133494;28;19924;-72
2021/08/30 05:47:00;;;;;;;;;;;;;;;;;;5133358;28;19923;-73
2021/08/30 05:49:26;;;;;;;;;;;;;;;;;;5133281;28;20388;-72
2021/08/30 05:51:53;;;;;;;;;;;;;;;;;;5133396;28;19992;-71
2021/08/30 05:54:19;;;;;;;;;;;;;;;;;;5133184;28;19935;-71
2021/08/30 05:56:45;;;;;;;;;;;;;;;;;;5133593;27;19945;-72
2021/08/30 05:59:12;;;;;;;;;;;;;;;;;;5137204;27;19923;-72
2021/08/30 06:01:38;;;;;;;;;;;;;;;;;;5137565;27;19974;-71
2021/08/30 06:04:04;;;;;;;;;;;;;;;;;;5137402;27;19949;-72
2021/08/30 06:06:31;;;;;;;;;;;;;;;;;;5137157;27;19923;-71
2021/08/30 06:08:57;;;;;;;;;;;;;;;;;;5136894;27;19924;-71
2021/08/30 06:11:23;;;;;;;;;;;;;;;;;;5137509;27;19927;-73
2021/08/30 06:13:49;;;;;;;;;;;;;;;;;;5136802;27;19927;-72
2021/08/30 06:16:16;;;;;;;;;;;;;;;;;;5137348;27;19923;-72
2021/08/30 06:18:42;;;;;;;;;;;;;;;;;;5137230;27;19953;-73
2021/08/30 06:21:08;;;;;;;;;;;;;;;;;;5136575;27;19924;-72
2021/08/30 06:23:35;;;;;;;;;;;;;;;;;;5137356;27;19923;-72
2021/08/30 06:26:01;;;;;;;;;;;;;;;;;;5136895;27;19929;-73
2021/08/30 06:28:27;;;;;;;;;;;;;;;;;;5136610;27;19927;-72
2021/08/30 06:30:53;;;;;;;;;;;;;;;;;;5136883;27;19923;-72
2021/08/30 06:33:20;;;;;;;;;;;;;;;;;;5137050;27;19934;-72
2021/08/30 06:35:46;;;;;;;;;;;;;;;;;;5136473;27;19930;-72
2021/08/30 06:38:12;;;;;;;;;;;;;;;;;;5136958;27;19923;-72
2021/08/30 06:40:39;;;;;;;;;;;;;;;;;;5136832;27;19923;-73
2021/08/30 06:43:05;;;;;;;;;;;;;;;;;;5136224;27;20385;-68
2021/08/30 06:45:31;;;;;;;;;;;;;;;;;;5137014;27;19930;-72
2021/08/30 06:47:58;;;;;;;;;;;;;;;;;;5136239;27;20277;-72
2021/08/30 06:50:24;;;;;;;;;;;;;;;;;;5136291;27;19923;-73
2021/08/30 06:52:50;;;;;;;;;;;;;;;;;;5136324;27;19933;-72
2021/08/30 06:55:16;;;;;;;;;;;;;;;;;;5136327;27;20325;-72
2021/08/30 06:57:43;;;;;;;;;;;;;;;;;;5136307;27;19923;-73
2021/08/30 07:00:09;;;;;;;;;;;;;;;;;;5136203;27;20126;-72
2021/08/30 07:02:35;;;;;;;;;;;;;;;;;;5136441;27;19934;-73
2021/08/30 07:05:02;;;;;;;;;;;;;;;;;;5135918;27;20407;-73
2021/08/30 07:07:28;;;;;;;;;;;;;;;;;;5136224;27;19924;-73
2021/08/30 07:09:54;;;;;;;;;;;;;;;;;;5135161;27;19930;-72
2021/08/30 07:12:21;;;;;;;;;;;;;;;;;;5135891;27;19928;-73
2021/08/30 07:14:47;;;;;;;;;;;;;;;;;;5135764;27;19923;-75
2021/08/30 07:17:13;;;;;;;;;;;;;;;;;;5136243;27;19930;-72
2021/08/30 07:19:40;;;;;;;;;;;;;;;;;;5135862;27;19923;-72
2021/08/30 07:22:06;;;;;;;;;;;;;;;;;;5135575;27;19924;-69
2021/08/30 07:24:32;;;;;;;;;;;;;;;;;;5135677;27;20404;-77
2021/08/30 07:27:01;;;;;;;;;;;;;;;;;;5135348;27;19924;-75
2021/08/30 07:29:28;;;;;;;;;;;;;;;;;;5135543;27;19930;-71
2021/08/30 07:31:54;;;;;;;;;;;;;;;;;;5135467;27;19931;-71
2021/08/30 07:34:20;;;;;;;;;;;;;;;;;;5135522;27;20443;-71
2021/08/30 07:36:47;;;;;;;;;;;;;;;;;;5135277;27;19923;-72
2021/08/30 07:39:13;;;;;;;;;;;;;;;;;;5135737;27;19947;-71
2021/08/30 07:41:39;;;;;;;;;;;;;;;;;;5135310;27;19931;-72
2021/08/30 07:44:05;;;;;;;;;;;;;;;;;;5135379;27;19923;-70
2021/08/30 07:46:32;;;;;;;;;;;;;;;;;;5135218;27;20396;-71
2021/08/30 07:48:58;;;;;;;;;;;;;;;;;;5135245;27;19931;-69
2021/08/30 07:51:24;;;;;;;;;;;;;;;;;;5135573;27;19930;-70
2021/08/30 07:53:51;;;;;;;;;;;;;;;;;;5134935;27;20345;-69
2021/08/30 07:56:17;;;;;;;;;;;;;;;;;;5135294;27;19923;-69
2021/08/30 07:58:43;;;;;;;;;;;;;;;;;;5135382;27;20258;-69
2021/08/30 08:01:10;;;;;;;;;;;;;;;;;;5135023;27;19923;-69
2021/08/30 08:03:36;;;;;;;;;;;;;;;;;;5135344;27;19924;-68
2021/08/30 08:06:02;;;;;;;;;;;;;;;;;;5134471;27;20288;-69
2021/08/30 08:08:29;;;;;;;;;;;;;;;;;;5133986;27;19930;-70
2021/08/30 08:10:55;;;;;;;;;;;;;;;;;;5134821;27;19935;-70
2021/08/30 08:13:22;;;;;;;;;;;;;;;;;;5134787;27;20294;-70
2021/08/30 08:15:49;;;;;;;;;;;;;;;;;;5134568;27;20299;-70
2021/08/30 08:18:16;;;;;;;;;;;;;;;;;;5134648;27;20030;-70
2021/08/30 08:20:42;;;;;;;;;;;;;;;;;;5134904;27;19927;-70
2021/08/30 08:23:08;;;;;;;;;;;;;;;;;;5133544;27;20365;-70
2021/08/30 08:25:36;;;;;;;;;;;;;;;;;;5134810;27;19930;-71
2021/08/30 08:28:04;;;;;;;;;;;;;;;;;;5134238;27;19931;-70
2021/08/30 08:30:30;;;;;;;;;;;;;;;;;;5134391;27;20274;-71
2021/08/30 08:32:56;;;;;;;;;;;;;;;;;;5134020;27;19923;-69
2021/08/30 08:35:23;;;;;;;;;;;;;;;;;;5134559;27;19923;-66
2021/08/30 08:37:49;;;;;;;;;;;;;;;;;;5134308;27;20396;-68
2021/08/30 08:40:15;;;;;;;;;;;;;;;;;;5134125;27;19924;-72
2021/08/30 08:42:41;;;;;;;;;;;;;;;;;;5134792;27;19934;-70
2021/08/30 08:45:08;;;;;;;;;;;;;;;;;;5134282;27;19924;-70
2021/08/30 08:47:34;;;;;;;;;;;;;;;;;;5134063;27;19923;-69
2021/08/30 08:50:00;;;;;;;;;;;;;;;;;;5134079;27;19931;-70
2021/08/30 08:52:27;;;;;;;;;;;;;;;;;;5133969;27;19923;-70
2021/08/30 08:54:53;;;;;;;;;;;;;;;;;;5133736;27;19968;-69
2021/08/30 08:57:19;;;;;;;;;;;;;;;;;;5133937;27;19923;-69
2021/08/30 08:59:46;;;;;;;;;;;;;;;;;;5133944;27;19923;-69
2021/08/30 09:02:12;;;;;;;;;;;;;;;;;;5133964;27;19927;-71
2021/08/30 09:04:38;;;;;;;;;;;;;;;;;;5133433;27;19923;-71
2021/08/30 09:07:05;;;;;;;;;;;;;;;;;;5133733;27;19927;-72
2021/08/30 09:09:31;;;;;;;;;;;;;;;;;;5133738;27;20293;-71
2021/08/30 09:11:58;;;;;;;;;;;;;;;;;;5133736;27;19930;-71
2021/08/30 09:14:24;;;;;;;;;;;;;;;;;;5134012;27;19924;-70
2021/08/30 09:16:50;;;;;;;;;;;;;;;;;;5133193;27;19938;-71
2021/08/30 09:19:16;;;;;;;;;;;;;;;;;;5133919;27;19930;-70
2021/08/30 09:21:43;;;;;;;;;;;;;;;;;;5133387;27;20293;-71
2021/08/30 09:24:09;;;;;;;;;;;;;;;;;;5133354;27;19924;-72
2021/08/30 09:26:35;;;;;;;;;;;;;;;;;;5133795;27;19930;-71
2021/08/30 09:29:02;;;;;;;;;;;;;;;;;;5133172;27;20393;-71
2021/08/30 09:31:28;;;;;;;;;;;;;;;;;;5133155;27;19930;-77
2021/08/30 09:33:54;;;;;;;;;;;;;;;;;;5133403;27;19961;-75
2021/08/30 09:36:20;;;;;;;;;;;;;;;;;;5133386;27;20525;-76
2021/08/30 09:38:47;;;;;;;;;;;;;;;;;;5133248;28;19923;-77
2021/08/30 09:41:13;;;;;;;;;;;;;;;;;;5133675;28;19924;-77
2021/08/30 09:43:39;;;;;;;;;;;;;;;;;;5133378;28;19923;-76
2021/08/30 09:46:07;;;;;;;;;;;;;;;;;;5133703;28;20026;-75
2021/08/30 09:48:35;;;;;;;;;;;;;;;;;;5133717;28;19963;-76
2021/08/30 09:51:01;;;;;;;;;;;;;;;;;;5132969;28;19923;-76
2021/08/30 09:53:27;;;;;;;;;;;;;;;;;;5133552;28;19992;-75
2021/08/30 09:55:54;;;;;;;;;;;;;;;;;;5133026;28;20299;-76
2021/08/30 09:58:20;;;;;;;;;;;;;;;;;;5133294;28;19928;-78
2021/08/30 10:00:46;;;;;;;;;;;;;;;;;;5133059;28;19923;-78
2021/08/30 10:03:12;;;;;;;;;;;;;;;;;;5133181;28;20569;-77
2021/08/30 10:05:39;;;;;;;;;;;;;;;;;;5133121;28;19924;-78
2021/08/30 10:08:05;;;;;;;;;;;;;;;;;;5133044;28;19928;-79
2021/08/30 10:10:31;;;;;;;;;;;;;;;;;;5133179;28;20408;-78
2021/08/30 10:12:58;;;;;;;;;;;;;;;;;;5132859;28;20019;-78
2021/08/30 10:15:25;;;;;;;;;;;;;;;;;;5133039;28;19929;-78
2021/08/30 10:17:51;;;;;;;;;;;;;;;;;;5132980;28;20369;-78
2021/08/30 10:20:18;;;;;;;;;;;;;;;;;;5132971;28;19930;-79
2021/08/30 10:22:44;;;;;;;;;;;;;;;;;;5132855;28;19924;-78
2021/08/30 10:25:10;;;;;;;;;;;;;;;;;;5133224;28;19923;-76
2021/08/30 10:27:38;;;;;;;;;;;;;;;;;;5133186;28;19954;-76
2021/08/30 10:30:04;;;;;;;;;;;;;;;;;;5132629;28;19927;-76
2021/08/30 10:32:33;;;;;;;;;;;;;;;;;;5133162;28;19923;-77
2021/08/30 10:34:59;;;;;;;;;;;;;;;;;;5132814;28;19949;-78
2021/08/30 10:37:25;;;;;;;;;;;;;;;;;;5133194;28;19923;-78
2021/08/30 10:39:54;;;;;;;;;;;;;;;;;;5132618;28;19923;-78
2021/08/30 10:42:20;;;;;;;;;;;;;;;;;;5132910;28;19924;-77
2021/08/30 10:44:46;;;;;;;;;;;;;;;;;;5134432;27;19923;-78
2021/08/30 10:47:12;;;;;;;;;;;;;;;;;;5136757;27;19934;-77
2021/08/30 10:49:39;;;;;;;;;;;;;;;;;;5136471;27;20400;-77
2021/08/30 10:52:05;;;;;;;;;;;;;;;;;;5136153;27;19934;-76
2021/08/30 10:54:31;;;;;;;;;;;;;;;;;;5136577;27;19924;-76
2021/08/30 10:56:58;;;;;;;;;;;;;;;;;;5135925;27;20400;-75
2021/08/30 10:59:24;;;;;;;;;;;;;;;;;;5136259;27;19929;-75
2021/08/30 11:01:50;;;;;;;;;;;;;;;;;;5135877;27;19931;-75
2021/08/30 11:04:17;;;;;;;;;;;;;;;;;;5136357;27;19930;-74
2021/08/30 11:06:43;;;;;;;;;;;;;;;;;;5136279;27;20301;-75
2021/08/30 11:09:09;;;;;;;;;;;;;;;;;;5136246;27;20350;-76
2021/08/30 11:11:36;;;;;;;;;;;;;;;;;;5136024;27;19924;-76
2021/08/30 11:14:02;;;;;;;;;;;;;;;;;;5136056;27;19924;-76
2021/08/30 11:16:28;;;;;;;;;;;;;;;;;;5135934;27;20297;-76
2021/08/30 11:18:54;;;;;;;;;;;;;;;;;;5135574;27;19923;-76
2021/08/30 11:21:21;;;;;;;;;;;;;;;;;;5135773;27;19924;-75
2021/08/30 11:23:47;;;;;;;;;;;;;;;;;;5135915;27;19923;-78
2021/08/30 11:26:13;;;;;;;;;;;;;;;;;;5135903;27;19935;-77
2021/08/30 11:28:40;;;;;;;;;;;;;;;;;;5135992;27;19931;-75
2021/08/30 11:31:07;;;;;;;;;;;;;;;;;;5135539;27;19962;-76
2021/08/30 11:33:33;;;;;;;;;;;;;;;;;;5135943;27;19962;-76
2021/08/30 11:35:59;;;;;;;;;;;;;;;;;;5135358;27;19932;-75
2021/08/30 11:38:26;;;;;;;;;;;;;;;;;;5135542;27;20014;-75
2021/08/30 11:40:52;;;;;;;;;;;;;;;;;;5135565;27;19924;-72
2021/08/30 11:43:18;;;;;;;;;;;;;;;;;;5135586;27;19924;-73
2021/08/30 11:45:44;;;;;;;;;;;;;;;;;;5135139;27;19929;-74
2021/08/30 11:48:11;;;;;;;;;;;;;;;;;;5135314;27;19930;-74
2021/08/30 11:50:39;;;;;;;;;;;;;;;;;;5135599;27;19931;-75
2021/08/30 11:53:05;;;;;;;;;;;;;;;;;;5135279;27;19927;-74
2021/08/30 11:55:31;;;;;;;;;;;;;;;;;;5135134;27;20285;-75
2021/08/30 11:57:58;;;;;;;;;;;;;;;;;;5134678;27;19923;-75
2021/08/30 12:00:24;;;;;;;;;;;;;;;;;;5135308;27;19941;-74
2021/08/30 12:02:50;;;;;;;;;;;;;;;;;;5135098;27;19974;-75
2021/08/30 12:05:17;;;;;;;;;;;;;;;;;;5135325;27;19924;-75
2021/08/30 12:07:43;;;;;;;;;;;;;;;;;;5134986;27;19931;-75
2021/08/30 12:10:09;;;;;;;;;;;;;;;;;;5134737;27;19924;-75
2021/08/30 12:12:38;;;;;;;;;;;;;;;;;;5135115;27;19931;-76
2021/08/30 12:15:04;;;;;;;;;;;;;;;;;;5134761;27;19927;-76
2021/08/30 12:17:30;;;;;;;;;;;;;;;;;;5134917;27;19923;-75
2021/08/30 12:19:57;;;;;;;;;;;;;;;;;;5134315;27;19923;-73
2021/08/30 12:22:23;;;;;;;;;;;;;;;;;;5134403;27;19928;-73
2021/08/30 12:24:49;;;;;;;;;;;;;;;;;;5134267;27;19924;-75
2021/08/30 12:27:15;;;;;;;;;;;;;;;;;;5134356;27;19924;-77
2021/08/30 12:29:44;;;;;;;;;;;;;;;;;;5134573;27;19924;-77
2021/08/30 12:32:11;;;;;;;;;;;;;;;;;;5134346;27;19930;-76
2021/08/30 12:34:37;;;;;;;;;;;;;;;;;;5134629;27;19931;-77
2021/08/30 12:37:03;;;;;;;;;;;;;;;;;;5133917;27;20420;-75
2021/08/30 12:39:30;;;;;;;;;;;;;;;;;;5134130;27;19929;-73
2021/08/30 12:41:56;;;;;;;;;;;;;;;;;;5134152;27;19934;-78
2021/08/30 12:44:22;;;;;;;;;;;;;;;;;;5134133;27;20289;-77
2021/08/30 12:46:48;;;;;;;;;;;;;;;;;;5133733;27;19929;-73
2021/08/30 12:49:15;;;;;;;;;;;;;;;;;;5134168;27;19930;-72
2021/08/30 12:51:41;;;;;;;;;;;;;;;;;;5134253;27;19923;-72
2021/08/30 12:54:08;;;;;;;;;;;;;;;;;;5134016;27;19930;-75
2021/08/30 12:56:34;;;;;;;;;;;;;;;;;;5133968;27;19927;-76
2021/08/30 12:59:00;;;;;;;;;;;;;;;;;;5133639;27;19930;-80
2021/08/30 13:01:27;;;;;;;;;;;;;;;;;;5134027;27;19923;-81
2021/08/30 13:03:53;;;;;;;;;;;;;;;;;;5133498;27;19929;-76
2021/08/30 13:06:19;;;;;;;;;;;;;;;;;;5133540;27;19923;-83
2021/08/30 13:08:45;;;;;;;;;;;;;;;;;;5133411;27;19945;-82
2021/08/30 13:11:12;;;;;;;;;;;;;;;;;;5133276;27;19934;-83
2021/08/30 13:13:38;;;;;;;;;;;;;;;;;;5133846;27;19923;-83
2021/08/30 13:16:04;;;;;;;;;;;;;;;;;;5133218;27;20302;-83
2021/08/30 13:18:31;;;;;;;;;;;;;;;;;;5133446;27;19924;-83
2021/08/30 13:20:57;;;;;;;;;;;;;;;;;;5133381;27;19939;-82
2021/08/30 13:23:23;;;;;;;;;;;;;;;;;;5133287;27;20369;-83
2021/08/30 13:25:50;;;;;;;;;;;;;;;;;;5133081;27;19923;-79
2021/08/30 13:28:16;;;;;;;;;;;;;;;;;;5133627;27;19923;-74
2021/08/30 13:30:42;;;;;;;;;;;;;;;;;;5133357;27;20270;-76
2021/08/30 13:33:08;;;;;;;;;;;;;;;;;;5133265;27;19930;-80
2021/08/30 13:35:35;;;;;;;;;;;;;;;;;;5133847;27;19927;-78
2021/08/30 13:38:01;;;;;;;;;;;;;;;;;;5133119;27;20286;-79
2021/08/30 13:40:28;;;;;;;;;;;;;;;;;;5133394;28;19929;-79
2021/08/30 13:42:54;;;;;;;;;;;;;;;;;;5133195;28;19972;-82
2021/08/30 13:45:21;;;;;;;;;;;;;;;;;;5133455;28;19930;-82
2021/08/30 13:47:47;;;;;;;;;;;;;;;;;;5133021;28;20369;-82
2021/08/30 13:50:13;;;;;;;;;;;;;;;;;;5133470;28;19937;-81
2021/08/30 13:52:39;;;;;;;;;;;;;;;;;;5133495;28;19946;-82
2021/08/30 13:55:06;;;;;;;;;;;;;;;;;;5132899;28;19930;-81
2021/08/30 13:57:33;;;;;;;;;;;;;;;;;;5133135;28;20286;-82
2021/08/30 13:59:59;;;;;;;;;;;;;;;;;;5132790;28;19923;-82
2021/08/30 14:02:25;;;;;;;;;;;;;;;;;;5133303;28;19924;-81
2021/08/30 14:04:51;;;;;;;;;;;;;;;;;;5132880;28;19924;-82
2021/08/30 14:07:18;;;;;;;;;;;;;;;;;;5133118;28;19930;-81
2021/08/30 14:09:44;;;;;;;;;;;;;;;;;;5137674;28;20018;-81
2021/08/30 14:12:10;;;;;;;;;;;;;;;;;;5133000;28;20373;-82
2021/08/30 14:14:37;;;;;;;;;;;;;;;;;;5133047;28;19924;-79
2021/08/30 14:17:03;;;;;;;;;;;;;;;;;;5133020;28;19938;-80
2021/08/30 14:19:29;;;;;;;;;;;;;;;;;;5136089;27;20403;-79
2021/08/30 14:21:56;;;;;;;;;;;;;;;;;;5136406;27;20309;-79
2021/08/30 14:24:22;;;;;;;;;;;;;;;;;;5137036;27;19923;-78
2021/08/30 14:26:48;;;;;;;;;;;;;;;;;;5136887;27;19923;-79
2021/08/30 14:29:14;;;;;;;;;;;;;;;;;;5137016;27;20304;-80
2021/08/30 14:31:41;;;;;;;;;;;;;;;;;;5136795;27;19930;-80
2021/08/30 14:34:07;;;;;;;;;;;;;;;;;;5136905;27;19930;-80
2021/08/30 14:36:33;;;;;;;;;;;;;;;;;;5136923;27;19924;-80
2021/08/30 14:39:00;;;;;;;;;;;;;;;;;;5136430;27;19924;-80
2021/08/30 14:41:26;;;;;;;;;;;;;;;;;;5136888;27;19924;-80
2021/08/30 14:43:53;;;;;;;;;;;;;;;;;;5136592;27;19923;-80
2021/08/30 14:46:20;;;;;;;;;;;;;;;;;;5136837;27;20334;-80
2021/08/30 14:48:46;;;;;;;;;;;;;;;;;;5136205;27;19979;-79
2021/08/30 14:51:12;;;;;;;;;;;;;;;;;;5136756;27;19923;-79
2021/08/30 14:53:39;;;;;;;;;;;;;;;;;;5136614;27;19930;-79
2021/08/30 14:56:05;;;;;;;;;;;;;;;;;;5136685;27;20421;-80
2021/08/30 14:58:34;;;;;;;;;;;;;;;;;;5136330;27;19931;-79
2021/08/30 15:01:00;;;;;;;;;;;;;;;;;;5136332;27;19927;-80
2021/08/30 15:03:26;;;;;;;;;;;;;;;;;;5136186;27;19923;-79
2021/08/30 15:05:52;;;;;;;;;;;;;;;;;;5135833;27;19924;-79
2021/08/30 15:08:19;;;;;;;;;;;;;;;;;;5136330;27;19931;-79
2021/08/30 15:10:45;;;;;;;;;;;;;;;;;;5135841;27;20299;-79
2021/08/30 15:13:12;;;;;;;;;;;;;;;;;;5136364;27;19927;-79
2021/08/30 15:15:38;;;;;;;;;;;;;;;;;;5135879;27;20370;-79
2021/08/30 15:18:04;;;;;;;;;;;;;;;;;;5135912;27;19928;-80
2021/08/30 15:20:31;;;;;;;;;;;;;;;;;;5136244;27;19923;-80
2021/08/30 15:22:57;;;;;;;;;;;;;;;;;;5135485;27;19931;-80
2021/08/30 15:25:23;;;;;;;;;;;;;;;;;;5136148;27;19930;-80
2021/08/30 15:27:49;;;;;;;;;;;;;;;;;;5135581;27;19923;-79
2021/08/30 15:30:16;;;;;;;;;;;;;;;;;;5135200;27;19928;-80
2021/08/30 15:32:42;;;;;;;;;;;;;;;;;;5135639;27;20377;-79
2021/08/30 15:35:09;;;;;;;;;;;;;;;;;;5135749;27;19931;-80
2021/08/30 15:37:35;;;;;;;;;;;;;;;;;;5135821;27;19923;-80
2021/08/30 15:40:01;;;;;;;;;;;;;;;;;;5135222;27;19923;-80
2021/08/30 15:42:27;;;;;;;;;;;;;;;;;;5135434;27;19924;-80
2021/08/30 15:44:54;;;;;;;;;;;;;;;;;;5135554;27;19924;-80
2021/08/30 15:47:20;;;;;;;;;;;;;;;;;;5135400;27;20396;-80
2021/08/30 15:49:46;;;;;;;;;;;;;;;;;;5134836;27;19928;-80
2021/08/30 15:52:13;;;;;;;;;;;;;;;;;;5135589;27;19923;-80
2021/08/30 15:54:39;;;;;;;;;;;;;;;;;;5135195;27;20374;-80
2021/08/30 15:57:05;;;;;;;;;;;;;;;;;;5134912;27;19924;-80
2021/08/30 15:59:32;;;;;;;;;;;;;;;;;;5135375;27;19930;-80
2021/08/30 16:01:58;;;;;;;;;;;;;;;;;;5135166;27;19923;-80
2021/08/30 16:04:24;;;;;;;;;;;;;;;;;;5135149;27;20331;-80
2021/08/30 16:06:51;;;;;;;;;;;;;;;;;;5134744;27;19930;-80
2021/08/30 16:09:17;;;;;;;;;;;;;;;;;;5135208;27;19923;-80
2021/08/30 16:11:43;;;;;;;;;;;;;;;;;;5135070;27;19924;-80
2021/08/30 16:14:10;;;;;;;;;;;;;;;;;;5135077;27;20274;-80
2021/08/30 16:16:36;;;;;;;;;;;;;;;;;;5134817;27;19923;-80
2021/08/30 16:19:02;;;;;;;;;;;;;;;;;;5139279;27;19930;-79
2021/08/30 16:21:29;;;;;;;;;;;;;;;;;;5139968;27;19923;-80
2021/08/30 16:23:55;;;;;;;;;;;;;;;;;;5138610;27;20393;-80
2021/08/30 16:26:21;;;;;;;;;;;;;;;;;;5136264;27;19924;-79
2021/08/30 16:28:48;;;;;;;;;;;;;;;;;;5134598;27;19930;-80
2021/08/30 16:31:14;;;;;;;;;;;;;;;;;;5134769;27;19946;-80
2021/08/30 16:33:40;;;;;;;;;;;;;;;;;;5134467;27;19930;-80
2021/08/30 16:36:06;;;;;;;;;;;;;;;;;;5134484;27;19933;-80
2021/08/30 16:38:33;;;;;;;;;;;;;;;;;;5134572;27;19924;-80
2021/08/30 16:40:59;;;;;;;;;;;;;;;;;;5133603;27;19923;-80